Amunt
Inicio > meteoXarxa
Fes-te'n soci

METEOXARXA

Ares del Maestrat
Ubicació
Comarca l′Alt Maestrat
Altitud (msnm) 976
Posició geogràfica 40° 30' 0.63" N, 00° 5' 57.21" W
Model Davis Vantage Pro2
Presa de dades
Font de les dades Weatherlink
Estadístiques. Resum
Data Temperatura (ºC) Humitat (%) Pressió (hPa) Vent (km/h) Precipit. (mm)
Mínima Mitjana Màxima Mínima Mitjana Màxima Mínima Mitjana Màxima Predom. Mitjana Ràfega màxima Total Dies de pluja
Mínima Mitjana Màxima Mínima Mitjana Màxima
Últimes dades diàries
25-03-2017 1,4     6,1     10,8 27,0 54,5 82,0 1.011,8 1.015,3 1.018,8 34,0 0,0  
24-03-2017 0,2     3,0     5,7 75,0 83,0 91,0 1.012,8 1.014,3 1.015,8 31,0 0,4  
23-03-2017 0,7     4,8     9,0 34,0 64,0 94,0 1.006,5 1.010,0 1.013,4 29,0 0,0  
22-03-2017 5,3     8,8     12,3 41,0 63,0 85,0 1.008,2 1.011,4 1.014,5 29,0 0,0  
21-03-2017 6,1     10,4     14,7 52,0 68,0 84,0 1.011,3 1.012,9 1.014,5 24,0 0,0  
20-03-2017 9,1     10,4     11,8 55,0 62,0 69,0 1.012,7 1.013,7 1.014,7 10,0 0,0  
19-03-2017 10,0     14,1     18,2 22,0 40,5 59,0 1.014,2 1.017,1 1.020,1 21,0 0,0  
18-03-2017 8,2     13,4     18,7 17,0 37,0 57,0 1.019,2 1.021,0 1.022,7 19,0 0,0  
17-03-2017 6,8     11,3     15,8 18,0 42,0 66,0 1.021,4 1.022,7 1.024,0 23,0 0,0  
16-03-2017 5,6     10,1     14,6 24,0 50,5 77,0 1.022,4 1.024,2 1.026,1 24,0 0,0  
15-03-2017 6,1     10,1     14,1 43,0 66,0 89,0 1.025,3 1.027,8 1.030,3 19,0 0,0  
14-03-2017 4,0     9,3     14,7 57,0 78,0 99,0 1.028,7 1.030,8 1.032,8 24,0 2,2  
13-03-2017 0,1     2,4     4,7 94,0 96,5 99,0 1.013,4 1.021,7 1.030,0 29,0 22,6  
12-03-2017 1,7     8,9     16,2 40,0 66,5 93,0 1.011,9 1.013,4 1.014,8 40,0 5,0  
11-03-2017 15,0     18,1     21,2 25,0 42,0 59,0 1.012,9 1.015,7 1.018,5 23,0 0,0  
10-03-2017 14,9     20,1     25,4 17,0 28,0 39,0 1.016,7 1.019,5 1.022,2 31,0 0,0  
09-03-2017 12,9     19,2     25,5 16,0 31,0 46,0 1.022,1 1.025,1 1.028,1 23,0 0,0  
08-03-2017 6,4     11,8     17,2 34,0 59,5 85,0 1.022,5 1.025,2 1.028,0 56,0 0,0  
07-03-2017 1,8     3,0     4,2 83,0 88,0 93,0 1.016,3 1.017,5 1.018,8 29,0 0,0  
06-03-2017 1,8     3,0     4,2 83,0 88,0 93,0 1.016,3 1.017,5 1.018,8 29,0 0,0  
05-03-2017 1,8     3,0     4,2 83,0 88,0 93,0 1.016,3 1.017,5 1.018,8 29,0 0,0  
04-03-2017 1,8     3,0     4,2 83,0 88,0 93,0 1.016,3 1.017,5 1.018,8 29,0 0,0  
03-03-2017 1,8     3,0     4,2 83,0 88,0 93,0 1.016,3 1.017,5 1.018,8 29,0 0,0  
01-03-2017 1,8     3,0     4,2 83,0 88,0 93,0 1.016,3 1.017,5 1.018,8 29,0 0,0  
28-02-2017 1,9     6,3     10,8 54,0 74,5 95,0 1.009,6 1.013,1 1.016,7 43,0 0,2  
27-02-2017 6,7     10,4     14,1 47,0 67,0 87,0 1.011,2 1.014,6 1.018,0 19,0 0,0  
26-02-2017 2,9     8,2     13,4 42,0 69,0 96,0 1.017,9 1.020,0 1.022,2 26,0 0,0  
25-02-2017 0,7     6,5     12,2 38,0 66,5 95,0 1.017,9 1.020,1 1.022,3 31,0 0,0  
24-02-2017 1,4     5,8     10,1 62,0 78,5 95,0 1.010,0 1.014,2 1.018,4 47,0 2,0  
23-02-2017 9,2     12,0     14,8 18,0 47,0 76,0 1.012,1 1.016,2 1.020,4 26,0 0,0  
22-02-2017 8,0     11,2     14,5 15,0 35,5 56,0 1.020,0 1.022,2 1.024,5 19,0 0,0  
21-02-2017 4,3     9,1     13,9 30,0 58,0 86,0 1.023,4 1.025,4 1.027,4 23,0 0,0  
Dades del mes en curs (actualitzades fins l'últim dia disponible)
03/2017 0,1 5,2 15,0 8,8 4,2 12,3 25,5 16,0 65,0 99,0 1.006,5 1.018,6 1.032,8   56,0 30,2  
Últimes dades mensuals
12/2016 -0,3 4,4 10,1 7,5 1,4 10,7 18,9 17,5 75,9 99,5 1.015,1 1.029,4 1.037,1 45,0 76,2 9
08/2016 8,4 15,8 19,7 21,0 21,1 26,2 30,0 55,0 64,3 85,0 1.009,8 1.017,8 1.023,9 35,0 10,0 5
07/2016 8,2 16,5 21,8 21,5 22,3 26,4 31,7 46,5 58,7 80,5 1.012,0 1.016,7 1.022,1 48,0 1,6 2
06/2016 6,8 13,1 18,8 17,8 14,4 22,5 27,5 39,0 62,2 79,0 1.002,3 1.015,6 1.025,0 50,0 47,6 10
05/2016 0,1 7,9 14,7 12,2 9,1 16,6 22,1 39,5 69,6 100,0 1.005,9 1.014,8 1.024,0 58,0 30,8 9
04/2016 -0,1 5,1 10,9 9,1 6,3 13,2 18,1 56,5 71,3 99,5 1.007,0 1.014,0 1.020,3 63,0 48,2 12
03/2016 -1,6 2,3 10,0 6,1 3,1 9,9 18,8 50,5 71,7 99,5 1.003,0 1.015,2 1.026,6 71,0 30,2 13
02/2016 -4,5 2,5 9,0 6,3 3,2 10,1 16,6 43,0 66,6 92,0 990,6 1.017,3 1.036,0 82,0 19,4 8
01/2016 -2,4 4,3 9,4 7,6 3,2 11,0 16,6 53,0 69,4 89,0 1.003,4 1.020,7 1.033,0 69,0 5,8 9
Dades de l'any en curs (actualitzades fins l'últim dia disponible)
2017 -8,0 2,6 15,0 5,8 -2,1 9,0 25,5 15,0 71,0 100,0 1.005,0 1.020,2 1.033,8   95,0 60,4  
Últimes dades anuals